createdAt,value
2023-03-18T00:01:03.598Z,55.48
2023-03-18T00:03:32.149Z,55.49
2023-03-18T00:06:05.695Z,55.29
2023-03-18T00:08:33.175Z,55.36
2023-03-18T00:11:00.511Z,55.45
2023-03-18T00:13:27.764Z,55.47
2023-03-18T00:15:54.473Z,55.17
2023-03-18T00:18:21.118Z,55.18
2023-03-18T00:20:47.802Z,55.10
2023-03-18T00:23:14.938Z,55.18
2023-03-18T00:25:42.382Z,55.75
2023-03-18T00:28:09.140Z,55.56
2023-03-18T00:30:38.570Z,55.69
2023-03-18T00:33:05.715Z,55.38
2023-03-18T00:35:33.149Z,55.21
2023-03-18T00:38:00.090Z,55.51
2023-03-18T00:40:30.182Z,55.83
2023-03-18T00:43:07.177Z,55.83
2023-03-18T00:45:37.101Z,55.91
2023-03-18T00:48:04.618Z,55.59
2023-03-18T00:50:31.398Z,56.11
2023-03-18T00:52:59.072Z,56.42
2023-03-18T00:55:27.027Z,56.25
2023-03-18T00:57:53.875Z,56.32
2023-03-18T01:00:21.120Z,56.26
2023-03-18T01:02:50.524Z,56.31
2023-03-18T01:05:17.941Z,56.16
2023-03-18T01:07:44.849Z,56.03
2023-03-18T01:10:14.054Z,56.27
2023-03-18T01:12:46.034Z,56.46
2023-03-18T01:15:16.538Z,55.94
2023-03-18T01:17:45.007Z,56.49
2023-03-18T01:20:17.438Z,56.72
2023-03-18T01:22:44.944Z,56.79
2023-03-18T01:25:15.684Z,56.75
2023-03-18T01:27:43.739Z,56.65
2023-03-18T01:30:12.845Z,57.13
2023-03-18T01:32:40.732Z,57.23
2023-03-18T01:35:08.065Z,57.08
2023-03-18T01:37:36.158Z,57.19
2023-03-18T01:40:11.341Z,57.61
2023-03-18T01:42:37.970Z,57.55
2023-03-18T01:45:22.668Z,57.48
2023-03-18T01:47:51.048Z,57.46
2023-03-18T01:50:26.792Z,57.80
2023-03-18T01:53:00.905Z,57.35
2023-03-18T01:55:30.112Z,57.80
2023-03-18T01:57:59.231Z,57.87
2023-03-18T02:00:26.046Z,58.02
2023-03-18T02:02:54.120Z,58.22
2023-03-18T02:05:26.981Z,58.33
2023-03-18T02:07:53.738Z,58.28
2023-03-18T02:10:25.303Z,58.32
2023-03-18T02:13:03.634Z,58.29
2023-03-18T02:15:38.047Z,57.99
2023-03-18T02:18:26.885Z,58.35
2023-03-18T02:21:12.028Z,57.85
2023-03-18T02:23:54.064Z,58.25
2023-03-18T02:26:44.052Z,58.22
2023-03-18T02:29:15.418Z,58.43
2023-03-18T02:31:49.408Z,58.53
2023-03-18T02:34:25.176Z,58.39
2023-03-18T02:36:53.224Z,58.71
2023-03-18T02:39:22.017Z,58.81
2023-03-18T02:41:49.772Z,58.73
2023-03-18T02:44:19.090Z,58.96
2023-03-18T02:47:11.061Z,58.75
2023-03-18T02:49:38.213Z,59.04
2023-03-18T02:52:06.342Z,59.32
2023-03-18T02:54:33.233Z,59.31
2023-03-18T02:57:01.360Z,59.45
2023-03-18T02:59:29.121Z,59.22
2023-03-18T03:01:57.047Z,59.29
2023-03-18T03:04:25.410Z,59.52
2023-03-18T03:06:54.461Z,59.29
2023-03-18T03:09:31.656Z,59.57
2023-03-18T03:11:58.393Z,59.61
2023-03-18T03:14:25.945Z,59.57
2023-03-18T03:16:56.281Z,59.91
2023-03-18T03:19:23.225Z,59.67
2023-03-18T03:21:49.965Z,60.19
2023-03-18T03:24:16.908Z,60.12
2023-03-18T03:26:44.114Z,59.80
2023-03-18T03:29:12.436Z,59.93
2023-03-18T03:31:39.012Z,59.93
2023-03-18T03:34:06.631Z,60.14
2023-03-18T03:36:33.671Z,60.08
2023-03-18T03:39:00.634Z,60.08
2023-03-18T03:41:27.804Z,60.15
2023-03-18T03:43:54.815Z,60.55
2023-03-18T03:46:21.498Z,60.22
2023-03-18T03:48:49.230Z,60.56
2023-03-18T03:51:16.524Z,60.74
2023-03-18T03:53:45.681Z,60.86
2023-03-18T03:56:12.719Z,61.00
2023-03-18T03:58:39.613Z,60.78
2023-03-18T04:01:08.010Z,61.51
2023-03-18T04:03:35.098Z,61.84
2023-03-18T04:06:06.060Z,61.46
2023-03-18T04:08:33.030Z,61.93
2023-03-18T04:10:59.982Z,61.92
2023-03-18T04:13:27.006Z,62.22
2023-03-18T04:15:54.368Z,62.39
2023-03-18T04:18:21.242Z,62.75
2023-03-18T04:20:48.335Z,62.40
2023-03-18T04:23:35.851Z,63.36
2023-03-18T04:26:04.840Z,62.98
2023-03-18T04:28:32.505Z,62.61
2023-03-18T04:30:59.712Z,63.77
2023-03-18T04:33:27.422Z,62.84
2023-03-18T04:35:54.186Z,62.79
2023-03-18T04:38:20.895Z,62.80
2023-03-18T04:40:49.194Z,62.48
2023-03-18T04:43:16.424Z,62.81
2023-03-18T04:45:43.366Z,62.74
2023-03-18T04:48:10.206Z,62.95
2023-03-18T04:50:39.929Z,62.53
2023-03-18T04:53:09.367Z,62.72
2023-03-18T04:55:37.196Z,62.30
2023-03-18T04:58:05.256Z,62.53
2023-03-18T05:00:36.960Z,62.34
2023-03-18T05:03:14.215Z,62.19
2023-03-18T05:05:41.352Z,61.83
2023-03-18T05:08:09.732Z,61.87
2023-03-18T05:10:36.675Z,61.59
2023-03-18T05:13:03.515Z,61.88
2023-03-18T05:15:33.419Z,61.58
2023-03-18T05:18:00.801Z,62.08
2023-03-18T05:20:28.163Z,61.65
2023-03-18T05:22:55.111Z,61.75
2023-03-18T05:25:34.634Z,61.57
2023-03-18T05:28:02.031Z,61.72
2023-03-18T05:30:38.870Z,61.42
2023-03-18T05:33:05.775Z,61.91
2023-03-18T05:35:47.168Z,61.70
2023-03-18T05:38:14.356Z,61.86
2023-03-18T05:40:41.200Z,61.46
2023-03-18T05:43:17.674Z,61.52
2023-03-18T05:45:49.762Z,61.20
2023-03-18T05:48:17.596Z,61.39
2023-03-18T05:50:51.871Z,61.34
2023-03-18T05:53:21.619Z,61.31
2023-03-18T05:55:52.044Z,61.22
2023-03-18T05:58:20.521Z,61.16
2023-03-18T06:00:49.925Z,61.08
2023-03-18T06:03:17.789Z,60.93
2023-03-18T06:05:44.560Z,60.95
2023-03-18T06:08:11.482Z,60.49
2023-03-18T06:10:38.424Z,60.24
2023-03-18T06:13:05.415Z,60.25
2023-03-18T06:15:33.103Z,59.99
2023-03-18T06:18:00.341Z,59.53
2023-03-18T06:20:28.472Z,59.22
2023-03-18T06:22:55.213Z,58.85
2023-03-18T06:25:23.487Z,58.67
2023-03-18T06:27:51.757Z,58.46
2023-03-18T06:30:21.053Z,58.12
2023-03-18T06:32:47.971Z,57.58
2023-03-18T06:35:16.093Z,57.17
2023-03-18T06:37:43.445Z,56.18
2023-03-18T06:40:11.812Z,55.15
2023-03-18T06:42:38.970Z,54.11
2023-03-18T06:45:12.722Z,53.57
2023-03-18T06:48:00.919Z,52.76
2023-03-18T06:50:28.991Z,52.38
2023-03-18T06:52:56.037Z,52.07
2023-03-18T06:55:27.587Z,51.64
2023-03-18T06:57:54.543Z,50.08
2023-03-18T07:00:25.237Z,46.23
2023-03-18T07:02:53.458Z,42.48
2023-03-18T07:05:24.075Z,38.83
2023-03-18T07:07:50.812Z,34.56
2023-03-18T07:10:23.870Z,30.72
2023-03-18T07:12:51.816Z,29.06
2023-03-18T07:15:21.979Z,26.12
2023-03-18T07:17:50.197Z,25.24
2023-03-18T07:20:17.641Z,22.95
2023-03-18T07:22:46.219Z,22.47
2023-03-18T07:25:13.128Z,21.20
2023-03-18T07:27:41.934Z,20.39
2023-03-18T07:30:09.363Z,19.30
2023-03-18T07:32:37.896Z,18.61
2023-03-18T07:35:05.958Z,17.69
2023-03-18T07:37:33.017Z,16.98
2023-03-18T07:39:59.720Z,15.41
2023-03-18T07:42:26.518Z,15.35
2023-03-18T07:44:54.631Z,14.91
2023-03-18T07:47:23.104Z,14.63
2023-03-18T07:49:51.306Z,14.66
2023-03-18T07:52:18.400Z,12.53
2023-03-18T07:54:44.993Z,12.26
2023-03-18T07:57:12.241Z,11.48
2023-03-18T07:59:39.308Z,12.45
2023-03-18T08:02:08.266Z,13.30
2023-03-18T08:04:35.143Z,13.92
2023-03-18T08:07:02.603Z,15.35
2023-03-18T08:09:29.258Z,15.58
2023-03-18T08:11:55.906Z,16.28
2023-03-18T08:14:22.723Z,16.46
2023-03-18T08:16:49.543Z,16.55
2023-03-18T08:19:16.346Z,16.72
2023-03-18T08:21:43.674Z,17.09
2023-03-18T08:24:10.523Z,17.16
2023-03-18T08:26:37.873Z,17.10
2023-03-18T08:29:04.792Z,17.15
2023-03-18T08:31:31.479Z,17.41
2023-03-18T08:34:00.141Z,17.31
2023-03-18T08:36:28.128Z,16.60
2023-03-18T08:38:54.756Z,15.98
2023-03-18T08:41:22.609Z,15.78
2023-03-18T08:43:51.905Z,15.07
2023-03-18T08:46:18.761Z,14.91
2023-03-18T08:48:46.177Z,14.94
2023-03-18T08:51:12.821Z,14.99
2023-03-18T08:53:40.095Z,15.58
2023-03-18T08:56:07.646Z,16.07
2023-03-18T08:58:35.514Z,15.89
2023-03-18T09:01:04.828Z,14.33
2023-03-18T09:03:33.219Z,14.08
2023-03-18T09:06:00.234Z,13.92
2023-03-18T09:08:28.813Z,14.09
2023-03-18T09:10:55.854Z,14.15
2023-03-18T09:13:22.607Z,13.73
2023-03-18T09:15:49.951Z,13.39
2023-03-18T09:18:17.862Z,13.40
2023-03-18T09:20:45.788Z,13.26
2023-03-18T09:23:14.153Z,13.67
2023-03-18T09:25:44.247Z,13.57
2023-03-18T09:28:10.954Z,13.37
2023-03-18T09:30:38.636Z,13.50
2023-03-18T09:33:06.415Z,12.75
2023-03-18T09:35:34.688Z,12.54
2023-03-18T09:38:01.886Z,11.70
2023-03-18T09:40:51.619Z,11.08
2023-03-18T09:43:46.903Z,11.21
2023-03-18T09:46:44.295Z,11.74
2023-03-18T09:49:26.900Z,11.58
2023-03-18T09:52:25.838Z,11.01
2023-03-18T09:55:02.389Z,11.05
2023-03-18T09:57:36.709Z,11.24
2023-03-18T10:00:23.674Z,11.25
2023-03-18T10:02:57.143Z,12.18
2023-03-18T10:05:30.885Z,10.35
2023-03-18T10:08:22.161Z,10.14
2023-03-18T10:10:48.980Z,10.30
2023-03-18T10:13:44.008Z,10.48
2023-03-18T10:16:20.000Z,10.50
2023-03-18T10:18:47.319Z,9.09
2023-03-18T10:21:35.843Z,9.05
2023-03-18T10:24:06.558Z,8.82
2023-03-18T10:27:02.628Z,9.67
2023-03-18T10:29:47.252Z,8.67
2023-03-18T10:32:42.635Z,8.49
2023-03-18T10:35:42.563Z,8.16
2023-03-18T10:38:22.525Z,8.14
2023-03-18T10:40:49.396Z,8.89
2023-03-18T10:43:25.412Z,10.08
2023-03-18T10:46:01.822Z,10.30
2023-03-18T10:48:43.334Z,9.41
2023-03-18T10:51:37.783Z,9.20
2023-03-18T10:54:49.827Z,9.51
2023-03-18T10:57:18.129Z,8.79
2023-03-18T10:59:45.603Z,9.15
2023-03-18T11:02:20.130Z,10.02
2023-03-18T11:04:49.282Z,10.58
2023-03-18T11:07:25.449Z,10.36
2023-03-18T11:09:53.028Z,10.24
2023-03-18T11:12:26.547Z,9.68
2023-03-18T11:14:54.224Z,9.19
2023-03-18T11:17:36.242Z,8.94
2023-03-18T11:20:16.361Z,10.12
2023-03-18T11:22:50.263Z,10.02
2023-03-18T11:25:22.980Z,9.57
2023-03-18T11:27:56.828Z,9.48
2023-03-18T11:30:34.312Z,9.55
2023-03-18T11:33:11.282Z,9.41
2023-03-18T11:35:57.581Z,8.84
2023-03-18T11:38:35.916Z,8.98
2023-03-18T11:41:07.848Z,9.77
2023-03-18T11:43:37.330Z,10.15
2023-03-18T11:46:07.794Z,10.99
2023-03-18T11:48:41.920Z,11.32
2023-03-18T11:51:29.662Z,10.83
2023-03-18T11:53:59.193Z,10.64
2023-03-18T11:56:28.987Z,10.83
2023-03-18T11:59:18.159Z,11.39
2023-03-18T12:01:46.175Z,11.00
2023-03-18T12:04:37.690Z,10.79
2023-03-18T12:07:17.796Z,10.12
2023-03-18T12:10:04.175Z,10.52
2023-03-18T12:13:05.012Z,10.10
2023-03-18T12:16:16.625Z,9.19
2023-03-18T12:19:06.507Z,9.22
2023-03-18T12:21:52.229Z,9.81
2023-03-18T12:24:51.907Z,9.76
2023-03-18T12:27:36.507Z,9.61
2023-03-18T12:30:24.708Z,9.43
2023-03-18T12:33:05.764Z,10.16
2023-03-18T12:36:01.597Z,10.93
2023-03-18T12:38:53.690Z,11.35
2023-03-18T12:41:31.424Z,11.45
2023-03-18T12:44:04.041Z,11.24
2023-03-18T12:46:35.460Z,11.23
2023-03-18T12:49:14.548Z,10.93
2023-03-18T12:51:50.035Z,10.76
2023-03-18T12:54:25.479Z,11.20
2023-03-18T12:57:12.291Z,12.74
2023-03-18T12:59:45.128Z,13.30
2023-03-18T13:02:29.568Z,12.98
2023-03-18T13:05:03.123Z,12.54
2023-03-18T13:07:40.205Z,13.32
2023-03-18T13:10:20.984Z,13.34
2023-03-18T13:12:52.722Z,13.29
2023-03-18T13:15:44.156Z,13.20
2023-03-18T13:18:26.857Z,13.45
2023-03-18T13:20:57.975Z,13.69
2023-03-18T13:23:46.449Z,13.80
2023-03-18T13:26:44.201Z,13.94
2023-03-18T13:29:48.646Z,14.61
2023-03-18T13:32:30.034Z,15.92
2023-03-18T13:35:28.311Z,16.76
2023-03-18T13:38:16.811Z,17.55
2023-03-18T13:41:11.672Z,18.02
2023-03-18T13:43:41.054Z,18.03
2023-03-18T13:46:26.724Z,18.61
2023-03-18T13:48:55.741Z,18.77
2023-03-18T13:51:23.004Z,18.92
2023-03-18T13:53:53.332Z,19.34
2023-03-18T13:56:39.816Z,19.59
2023-03-18T13:59:28.042Z,20.10
2023-03-18T14:01:59.646Z,20.56
2023-03-18T14:04:46.735Z,21.64
2023-03-18T14:07:21.273Z,22.10
2023-03-18T14:09:51.379Z,22.54
2023-03-18T14:12:32.976Z,22.87
2023-03-18T14:15:10.810Z,23.41
2023-03-18T14:17:37.985Z,23.35
2023-03-18T14:20:36.512Z,23.32
2023-03-18T14:23:43.087Z,23.90
2023-03-18T14:26:37.271Z,23.94
2023-03-18T14:29:07.322Z,24.08
2023-03-18T14:31:55.640Z,24.49
2023-03-18T14:34:24.750Z,25.31
2023-03-18T14:36:55.058Z,25.29
2023-03-18T14:39:31.119Z,25.63
2023-03-18T14:42:02.843Z,25.95
2023-03-18T14:44:46.936Z,26.65
2023-03-18T14:47:38.363Z,27.42
2023-03-18T14:50:19.938Z,28.06
2023-03-18T14:52:55.093Z,28.33
2023-03-18T14:55:35.170Z,28.11
2023-03-18T14:58:02.107Z,28.26
2023-03-18T15:00:35.721Z,28.82
2023-03-18T15:03:28.213Z,29.31
2023-03-18T15:06:01.868Z,30.19
2023-03-18T15:08:47.486Z,30.23
2023-03-18T15:11:18.324Z,29.96
2023-03-18T15:13:45.886Z,30.40
2023-03-18T15:16:17.680Z,31.19
2023-03-18T15:18:45.010Z,31.33
2023-03-18T15:21:23.070Z,31.57
2023-03-18T15:23:52.521Z,31.76
2023-03-18T15:26:29.912Z,31.95
2023-03-18T15:28:59.717Z,31.76
2023-03-18T15:31:28.029Z,32.40
2023-03-18T15:34:22.386Z,32.21
2023-03-18T15:36:57.117Z,32.77
2023-03-18T15:39:26.949Z,32.80
2023-03-18T15:41:54.909Z,32.98
2023-03-18T15:44:35.921Z,33.04
2023-03-18T15:47:10.598Z,32.96
2023-03-18T15:49:58.568Z,33.17
2023-03-18T15:52:38.794Z,33.44
2023-03-18T15:55:48.545Z,33.53
2023-03-18T15:58:22.297Z,33.49
2023-03-18T16:00:50.473Z,33.66
2023-03-18T16:03:21.620Z,33.74
2023-03-18T16:05:49.841Z,33.93
2023-03-18T16:08:19.724Z,34.08
2023-03-18T16:10:52.209Z,34.06
2023-03-18T16:13:23.902Z,34.51
2023-03-18T16:15:52.118Z,34.45
2023-03-18T16:18:20.852Z,34.73
2023-03-18T16:20:49.605Z,35.36
2023-03-18T16:23:17.648Z,35.51
2023-03-18T16:25:47.802Z,36.27
2023-03-18T16:28:27.477Z,36.12
2023-03-18T16:30:55.599Z,36.47
2023-03-18T16:33:23.284Z,36.78
2023-03-18T16:36:00.001Z,37.15
2023-03-18T16:38:27.989Z,37.29
2023-03-18T16:40:56.846Z,37.25
2023-03-18T16:43:30.041Z,37.97
2023-03-18T16:46:00.006Z,37.92
2023-03-18T16:48:27.608Z,37.87
2023-03-18T16:50:56.602Z,38.47
2023-03-18T16:53:26.905Z,38.27
2023-03-18T16:55:59.552Z,38.70
2023-03-18T16:58:37.102Z,38.58
2023-03-18T17:01:07.866Z,39.33
2023-03-18T17:03:35.937Z,39.69
2023-03-18T17:06:03.167Z,39.50
2023-03-18T17:08:30.045Z,39.50
2023-03-18T17:10:59.531Z,40.63
2023-03-18T17:13:29.874Z,39.98
2023-03-18T17:15:57.191Z,40.21
2023-03-18T17:18:25.265Z,41.00
2023-03-18T17:20:51.951Z,40.40
2023-03-18T17:23:28.031Z,40.23
2023-03-18T17:25:59.830Z,40.54
2023-03-18T17:28:32.253Z,40.73
2023-03-18T17:30:59.287Z,41.11
2023-03-18T17:33:30.279Z,41.03
2023-03-18T17:35:58.291Z,41.63
2023-03-18T17:38:25.328Z,41.74
2023-03-18T17:40:53.544Z,42.19
2023-03-18T17:43:50.514Z,42.05
2023-03-18T17:46:18.351Z,42.51
2023-03-18T17:48:45.854Z,42.86
2023-03-18T17:51:16.254Z,42.64
2023-03-18T17:53:48.368Z,42.73
2023-03-18T17:56:17.945Z,42.74
2023-03-18T17:58:47.938Z,43.54
2023-03-18T18:01:18.832Z,43.00
2023-03-18T18:03:47.166Z,43.03
2023-03-18T18:06:28.561Z,43.37
2023-03-18T18:09:00.542Z,42.99
2023-03-18T18:11:31.075Z,43.16
2023-03-18T18:14:19.496Z,43.48
2023-03-18T18:16:47.490Z,43.73
2023-03-18T18:19:15.693Z,43.91
2023-03-18T18:21:47.391Z,44.31
2023-03-18T18:24:22.335Z,44.28
2023-03-18T18:26:49.519Z,44.48
2023-03-18T18:29:22.923Z,44.55
2023-03-18T18:31:51.001Z,44.24
2023-03-18T18:34:19.750Z,44.03
2023-03-18T18:36:48.207Z,43.88
2023-03-18T18:39:15.395Z,44.14
2023-03-18T18:41:42.109Z,44.36
2023-03-18T18:44:08.727Z,44.72
2023-03-18T18:46:35.976Z,44.27
2023-03-18T18:49:03.033Z,44.53
2023-03-18T18:51:29.792Z,44.87
2023-03-18T18:53:56.543Z,44.73
2023-03-18T18:56:36.086Z,45.09
2023-03-18T18:59:21.654Z,46.02
2023-03-18T19:01:52.726Z,44.80
2023-03-18T19:04:21.280Z,45.72
2023-03-18T19:06:51.633Z,45.66
2023-03-18T19:09:21.354Z,45.36
2023-03-18T19:11:49.588Z,46.30
2023-03-18T19:14:25.535Z,45.98
2023-03-18T19:16:53.901Z,45.60
2023-03-18T19:19:28.190Z,45.20
2023-03-18T19:21:56.697Z,45.43
2023-03-18T19:24:30.380Z,45.85
2023-03-18T19:27:00.867Z,45.78
2023-03-18T19:29:28.277Z,45.95
2023-03-18T19:31:55.123Z,46.31
2023-03-18T19:34:22.833Z,45.91
2023-03-18T19:36:52.491Z,46.00
2023-03-18T19:39:21.755Z,46.57
2023-03-18T19:41:50.415Z,46.51
2023-03-18T19:44:22.828Z,47.01
2023-03-18T19:46:52.473Z,47.15
2023-03-18T19:49:34.672Z,47.44
2023-03-18T19:52:02.276Z,47.87
2023-03-18T19:54:32.307Z,47.86
2023-03-18T19:57:03.082Z,47.50
2023-03-18T19:59:38.096Z,47.38
2023-03-18T20:02:20.453Z,47.91
2023-03-18T20:04:50.578Z,47.92
2023-03-18T20:07:19.614Z,48.09
2023-03-18T20:09:47.683Z,48.27
2023-03-18T20:12:22.272Z,48.71
2023-03-18T20:14:49.418Z,48.78
2023-03-18T20:17:32.364Z,49.45
2023-03-18T20:19:59.385Z,49.44
2023-03-18T20:22:31.149Z,49.51
2023-03-18T20:25:00.861Z,49.33
2023-03-18T20:27:29.439Z,50.37
2023-03-18T20:29:56.788Z,50.30
2023-03-18T20:32:23.495Z,50.03
2023-03-18T20:34:50.704Z,49.77
2023-03-18T20:37:32.845Z,51.56
2023-03-18T20:40:01.079Z,50.98
2023-03-18T20:42:28.040Z,50.63
2023-03-18T20:44:54.857Z,50.91
2023-03-18T20:47:21.592Z,50.95
2023-03-18T20:49:48.538Z,50.38
2023-03-18T20:52:23.697Z,50.86
2023-03-18T20:54:50.562Z,50.40
2023-03-18T20:57:18.427Z,51.05
2023-03-18T20:59:48.511Z,50.62
2023-03-18T21:02:28.946Z,51.08
2023-03-18T21:04:57.759Z,50.48
2023-03-18T21:07:25.744Z,50.42
2023-03-18T21:09:53.286Z,50.38
2023-03-18T21:12:21.473Z,50.97
2023-03-18T21:14:49.141Z,50.54
2023-03-18T21:17:18.361Z,50.51
2023-03-18T21:19:46.494Z,50.50
2023-03-18T21:22:24.515Z,50.36
2023-03-18T21:24:52.054Z,50.67
2023-03-18T21:27:25.424Z,50.55
2023-03-18T21:29:54.336Z,50.86
2023-03-18T21:32:23.224Z,50.93
2023-03-18T21:34:52.246Z,50.90
2023-03-18T21:37:21.702Z,50.99
2023-03-18T21:39:49.204Z,51.08
2023-03-18T21:42:36.169Z,50.89
2023-03-18T21:45:03.919Z,51.54
2023-03-18T21:47:30.709Z,51.75
2023-03-18T21:49:57.562Z,51.16
2023-03-18T21:52:33.195Z,51.34
2023-03-18T21:55:01.470Z,51.23
2023-03-18T21:57:29.287Z,51.42
2023-03-18T21:59:56.009Z,50.79
2023-03-18T22:02:33.914Z,50.90
2023-03-18T22:05:10.460Z,50.62
2023-03-18T22:07:37.096Z,50.67
2023-03-18T22:10:06.401Z,50.78
2023-03-18T22:12:33.450Z,50.63
2023-03-18T22:15:00.471Z,50.32
2023-03-18T22:17:30.170Z,50.74
2023-03-18T22:19:58.692Z,50.74
2023-03-18T22:22:34.360Z,51.07
2023-03-18T22:25:01.294Z,51.10
2023-03-18T22:27:29.687Z,50.96
2023-03-18T22:29:58.688Z,51.63
2023-03-18T22:32:36.772Z,51.48
2023-03-18T22:35:07.133Z,51.29
2023-03-18T22:37:33.933Z,51.46
2023-03-18T22:40:01.322Z,51.28
2023-03-18T22:42:28.530Z,51.32
2023-03-18T22:44:55.591Z,51.09
2023-03-18T22:47:25.816Z,51.31
2023-03-18T22:49:53.057Z,51.05
2023-03-18T22:52:19.900Z,51.56
2023-03-18T22:54:49.826Z,51.50
2023-03-18T22:57:19.935Z,51.37
2023-03-18T22:59:47.062Z,51.55
2023-03-18T23:02:20.924Z,51.40
2023-03-18T23:04:49.277Z,51.49
2023-03-18T23:07:28.186Z,51.61
2023-03-18T23:09:57.328Z,51.42
2023-03-18T23:12:26.175Z,51.63
2023-03-18T23:14:53.647Z,51.53
2023-03-18T23:17:23.678Z,51.85
2023-03-18T23:19:52.041Z,51.48
2023-03-18T23:22:23.320Z,51.55
2023-03-18T23:24:50.855Z,51.72
2023-03-18T23:27:17.886Z,51.54
2023-03-18T23:29:45.554Z,51.89
2023-03-18T23:32:13.312Z,52.57
2023-03-18T23:34:40.476Z,52.01
2023-03-18T23:37:08.606Z,52.18
2023-03-18T23:39:35.752Z,52.09
2023-03-18T23:42:02.743Z,52.18
2023-03-18T23:44:29.884Z,52.03
2023-03-18T23:46:56.935Z,52.15
2023-03-18T23:49:23.989Z,52.43
2023-03-18T23:51:51.236Z,52.60
2023-03-18T23:54:18.180Z,53.38
2023-03-18T23:56:44.826Z,52.87
2023-03-18T23:59:11.551Z,53.58
